メインページ
METAR-TAF:

METAR-TAF

空港 :

Griffiss_Air_Force_Base

Rome, ニューヨーク, アメリカ合衆国

緯度: 43-14N, 経度: 075-24W, 海抜: 154m

現時点の気象観測

当レポートは19分前の16:53(UTC)に作成
無風
気温 29°C
湿度 55%
気圧 1021 hPa
視程: 16.1km
晴天

METAR: KRME 261653Z 00000KT 10SM CLR 29/19 A3015 RMK AO2 SLP203 T02940194

時間: 13:12 (17:12 UTC)

予報

当レポートは5時間52分前の11:20(UTC)に作成
予報は26日の 12時(UTC)から 27日の 12時(UTC)まで有効
変向風 3kt
視程: 10km
高度5000ftの雲はほとんどない
26日の 1700時(UTC)から
の風 4kt
視程: 10km
高度8000ftの雲はほとんどない
27日の 0000時(UTC)から
東/南東の風 3kt
視程: 10km
高度5000ftの雲は散在している

TAF: KRME 261120Z 2612/2712 VRB03KT P6SM FEW050 FM261700 19004KT P6SM FEW080 FM270000 12003KT P6SM SCT050

4,000以上の空港の気象観測と天気予報(METAR報とTAF報)

利用可能な観測所は地図上に黄色い丸と赤い丸で示す。

丸の上にカーソルを重ねると観測所名を参照できる。

次にクリックすると気象観測と天気予報を参照できる。

マップの切り替え:黒色「×」印の緑ボタンをクリックして拡大、「-」印の緑ボタンをクリックして縮小、緑色の三角印をクリックして隣りの地図に切り替え


METAR-TAF: